Time;durP1;ratioP1;P1;durP2;ratioP2;P2;SDS_P1;SDS_P2;PMS_P1;PMS_P2;Temp;Humidity;BMP_temperature;BMP_pressure;BME280_temperature;BME280_humidity;BME280_pressure;Samples;Min_cycle;Max_cycle;Signal;HPM_P1;HPM_P2
2021/09/19 08:19:06;;;;;;;6.57;3.78;;;;;;;24.35;46.93;101465.81;5052322;28;20398;-41
2021/09/19 08:21:32;;;;;;;4.22;3.88;;;;;;;25.09;44.67;101470.63;5053997;28;20108;-41
2021/09/19 08:23:57;;;;;;;3.55;3.25;;;;;;;25.24;44.44;101475.47;5045958;28;20124;-40
2021/09/19 08:26:22;;;;;;;3.88;3.40;;;;;;;25.20;43.96;101475.19;5062148;28;20022;-42
2021/09/19 08:28:48;;;;;;;5.35;4.00;;;;;;;24.91;44.17;101480.97;5041858;28;20041;-41
2021/09/19 08:31:13;;;;;;;4.05;3.72;;;;;;;24.54;44.55;101483.69;5031279;28;20453;-41
2021/09/19 08:33:39;;;;;;;4.05;3.75;;;;;;;24.26;45.52;101476.47;5029567;28;20026;-41
2021/09/19 08:36:04;;;;;;;4.68;4.28;;;;;;;24.31;45.97;101474.59;5044280;28;20033;-41
2021/09/19 08:38:29;;;;;;;7.40;4.10;;;;;;;24.22;45.77;101467.88;5055978;28;20083;-42
2021/09/19 08:40:55;;;;;;;4.38;3.60;;;;;;;24.90;44.69;101481.22;5049081;28;20056;-41
2021/09/19 08:43:20;;;;;;;4.00;3.60;;;;;;;24.51;45.39;101473.16;5042628;28;20033;-42
2021/09/19 08:45:47;;;;;;;3.92;3.42;;;;;;;24.62;44.87;101480.44;5029461;28;20041;-41
2021/09/19 08:48:15;;;;;;;4.13;3.50;;;;;;;24.67;44.39;101482.41;5029260;28;20213;-42
2021/09/19 08:50:40;;;;;;;4.43;3.60;;;;;;;24.39;45.51;101486.22;5029255;28;20026;-41
2021/09/19 08:53:06;;;;;;;4.00;3.60;;;;;;;24.37;45.23;101482.91;5011328;28;20520;-42
2021/09/19 08:55:31;;;;;;;3.85;3.55;;;;;;;24.65;44.19;101479.91;5027806;28;20025;-41
2021/09/19 08:57:56;;;;;;;3.72;3.40;;;;;;;23.97;46.92;101489.59;5028841;28;20021;-41
2021/09/19 09:00:22;;;;;;;3.22;2.92;;;;;;;24.68;45.05;101482.16;5029167;28;20030;-41
2021/09/19 09:02:54;;;;;;;3.85;3.55;;;;;;;25.10;43.24;101481.41;5029019;28;20112;-43
2021/09/19 09:05:21;;;;;;;3.55;3.25;;;;;;;24.84;44.95;101487.81;5034327;28;20026;-42
2021/09/19 09:07:50;;;;;;;5.55;3.20;;;;;;;23.91;46.43;101493.34;5041712;28;20392;-41
2021/09/19 09:10:15;;;;;;;4.75;3.03;;;;;;;23.70;46.84;101484.81;5028747;28;20399;-41
2021/09/19 09:12:40;;;;;;;3.70;3.30;;;;;;;23.08;48.73;101488.56;5028597;28;20068;-42
2021/09/19 09:15:06;;;;;;;3.97;3.67;;;;;;;23.12;48.18;101497.16;5028646;28;20061;-41
2021/09/19 09:17:31;;;;;;;3.70;3.40;;;;;;;22.50;49.69;101495.19;5028359;28;20081;-41
2021/09/19 09:19:58;;;;;;;6.45;4.15;;;;;;;21.94;51.63;101489.41;5028747;28;20034;-42
2021/09/19 09:22:27;;;;;;;4.57;4.18;;;;;;;21.03;53.91;101494.41;5031294;28;20091;-41
2021/09/19 09:25:13;;;;;;;7.78;4.30;;;;;;;20.41;56.08;101491.13;5048208;28;20029;-42
2021/09/19 09:27:45;;;;;;;4.43;4.03;;;;;;;20.25;56.75;101492.56;5048324;28;20136;-41
2021/09/19 09:30:15;;;;;;;4.63;4.18;;;;;;;20.10;58.00;101493.00;5036125;28;20483;-41
2021/09/19 09:32:49;;;;;;;5.18;4.47;;;;;;;19.64;58.73;101499.78;5035018;28;20052;-43
2021/09/19 09:35:15;;;;;;;5.20;4.35;;;;;;;20.26;57.64;101495.09;5016613;28;20366;-42
2021/09/19 09:37:40;;;;;;;7.10;4.60;;;;;;;20.37;56.75;101505.25;5015188;28;20080;-44
2021/09/19 09:40:41;;;;;;;6.07;4.88;;;;;;;20.02;56.97;101496.88;5025438;28;20378;-42
2021/09/19 09:43:08;;;;;;;5.90;4.63;;;;;;;19.80;58.47;101496.50;4993302;28;20084;-43
2021/09/19 09:45:35;;;;;;;;;;;;;;;19.56;59.64;101500.06;5015027;28;20073;-43
2021/09/19 09:48:01;;;;;;;6.07;4.05;;;;;;;19.79;59.05;101494.81;5034815;28;19916;-42
2021/09/19 09:50:28;;;;;;;4.45;4.03;;;;;;;19.80;59.78;101493.78;5025129;28;20034;-42
2021/09/19 09:53:11;;;;;;;4.73;4.20;;;;;;;19.79;58.60;101491.25;5015060;28;20037;-42
2021/09/19 09:55:44;;;;;;;6.55;4.03;;;;;;;19.97;59.14;101493.16;5014980;28;20033;-43
2021/09/19 09:58:12;;;;;;;4.00;3.70;;;;;;;19.81;59.35;101489.97;5023494;28;20039;-42
2021/09/19 10:00:38;;;;;;;6.88;4.40;;;;;;;19.91;58.45;101494.91;5025163;28;20030;-41
2021/09/19 10:03:03;;;;;;;5.43;4.30;;;;;;;19.47;60.09;101505.84;5014555;28;20094;-42
2021/09/19 10:05:29;;;;;;;5.45;4.68;;;;;;;19.61;60.40;101502.97;5014608;28;20061;-42
2021/09/19 10:07:55;;;;;;;4.70;4.20;;;;;;;19.74;59.49;101491.94;5024792;28;20021;-41
2021/09/19 10:10:24;;;;;;;4.25;3.83;;;;;;;19.87;59.94;101491.78;5024460;28;20068;-41
2021/09/19 10:12:51;;;;;;;5.43;4.53;;;;;;;19.73;59.58;101491.09;5030685;28;20059;-42
2021/09/19 10:15:17;;;;;;;5.57;4.57;;;;;;;19.60;60.01;101498.59;5034274;28;20029;-42
2021/09/19 10:17:43;;;;;;;5.85;4.60;;;;;;;19.71;59.67;101497.84;5030707;28;20049;-41
2021/09/19 10:20:16;;;;;;;5.65;4.72;;;;;;;19.83;58.92;101496.06;5014446;28;20025;-42
2021/09/19 10:22:48;;;;;;;4.90;4.40;;;;;;;19.81;59.07;101489.16;5024396;28;20499;-42
2021/09/19 10:25:26;;;;;;;5.05;4.57;;;;;;;19.82;60.04;101494.38;5033487;28;20488;-42
2021/09/19 10:28:15;;;;;;;4.72;4.32;;;;;;;19.81;60.03;101492.72;5031305;28;20045;-41
2021/09/19 10:31:09;;;;;;;5.20;4.80;;;;;;;19.71;60.43;101497.84;5014052;28;20038;-40
2021/09/19 10:33:39;;;;;;;5.38;4.82;;;;;;;19.67;60.15;101492.03;5029860;28;20124;-43
2021/09/19 10:36:11;;;;;;;5.22;4.82;;;;;;;19.48;60.24;101488.41;5014376;28;20029;-42
2021/09/19 10:38:39;;;;;;;6.13;4.53;;;;;;;19.34;61.42;101484.13;5014286;28;20022;-42
2021/09/19 10:41:21;;;;;;;4.95;4.50;;;;;;;19.74;60.16;101481.00;5012986;28;20041;-43
2021/09/19 10:44:04;;;;;;;5.05;4.65;;;;;;;19.78;60.67;101481.41;5033607;28;20337;-42
2021/09/19 10:46:35;;;;;;;5.32;4.82;;;;;;;20.09;58.93;101483.09;5024252;28;20025;-42
2021/09/19 10:49:14;;;;;;;5.50;5.00;;;;;;;20.24;59.58;101482.72;5013540;28;20029;-42
2021/09/19 10:52:01;;;;;;;7.15;4.97;;;;;;;20.38;58.26;101476.03;5015614;28;20038;-43
2021/09/19 10:54:41;;;;;;;5.38;4.80;;;;;;;20.17;58.85;101469.16;5033285;28;20422;-42
2021/09/19 10:57:27;;;;;;;5.90;4.97;;;;;;;20.33;58.41;101467.69;5028214;28;20113;-42
2021/09/19 11:00:07;;;;;;;6.00;4.95;;;;;;;20.16;58.71;101478.41;5013776;28;20049;-43
2021/09/19 11:02:34;;;;;;;6.82;4.70;;;;;;;19.97;59.74;101474.03;5012584;28;20037;-42
2021/09/19 11:05:21;;;;;;;5.80;5.20;;;;;;;19.70;60.58;101477.91;5013653;28;20058;-42
2021/09/19 11:07:46;;;;;;;;;;;;;;;19.88;60.95;101471.63;5013928;28;20132;-42
2021/09/19 11:10:16;;;;;;;7.07;5.00;;;;;;;20.01;59.85;101475.22;5012011;28;20385;-42
2021/09/19 11:12:46;;;;;;;9.18;6.28;;;;;;;19.81;59.43;101473.59;5023641;28;20044;-43
2021/09/19 11:15:14;;;;;;;5.97;5.32;;;;;;;19.73;60.69;101472.00;5033279;28;20025;-43
2021/09/19 11:17:48;;;;;;;5.63;5.13;;;;;;;19.75;60.50;101479.97;5032429;28;20083;-42
2021/09/19 11:20:13;;;;;;;6.07;4.88;;;;;;;19.89;60.32;101473.28;5033086;28;20063;-43
2021/09/19 11:22:40;;;;;;;6.00;5.50;;;;;;;20.13;59.04;101476.13;5023071;28;20066;-41
2021/09/19 11:25:06;;;;;;;4.70;4.30;;;;;;;21.10;56.66;101466.94;5012930;28;20702;-43
2021/09/19 11:27:32;;;;;;;5.22;4.70;;;;;;;22.42;52.86;101469.00;5013226;28;20029;-42
2021/09/19 11:29:58;;;;;;;7.22;5.20;;;;;;;22.50;51.63;101470.50;5013247;28;20030;-42
2021/09/19 11:32:24;;;;;;;5.25;4.75;;;;;;;22.74;51.72;101474.78;5020196;28;20322;-42
2021/09/19 11:34:51;;;;;;;5.93;4.80;;;;;;;22.62;51.91;101474.03;5022993;28;20103;-42
2021/09/19 11:37:17;;;;;;;6.25;5.15;;;;;;;22.90;50.87;101475.88;5013114;28;20385;-42
2021/09/19 11:39:42;;;;;;;5.75;5.07;;;;;;;23.60;48.49;101479.19;5029485;28;20038;-43
2021/09/19 11:42:11;;;;;;;6.38;5.07;;;;;;;23.35;49.52;101479.63;5028720;28;20026;-42
2021/09/19 11:44:43;;;;;;;6.50;4.78;;;;;;;23.93;49.00;101477.44;5026393;28;20026;-43
2021/09/19 11:47:12;;;;;;;6.10;5.47;;;;;;;23.63;48.86;101478.66;5026726;28;20025;-41
2021/09/19 11:49:39;;;;;;;7.85;6.13;;;;;;;23.40;49.57;101468.72;5034043;28;20032;-41
2021/09/19 11:52:05;;;;;;;6.50;6.00;;;;;;;23.38;49.20;101481.88;5032082;28;20124;-43
2021/09/19 11:54:30;;;;;;;6.22;5.72;;;;;;;23.26;50.04;101468.25;5032362;28;20025;-43
2021/09/19 11:56:56;;;;;;;6.68;5.90;;;;;;;23.63;49.53;101459.44;5017896;28;20034;-42
2021/09/19 11:59:21;;;;;;;6.35;5.75;;;;;;;24.00;49.37;101462.41;5011421;28;20034;-41
2021/09/19 12:01:48;;;;;;;7.13;5.93;;;;;;;24.01;48.89;101464.09;5012679;28;20026;-43
2021/09/19 12:04:14;;;;;;;6.43;5.75;;;;;;;24.24;48.23;101454.69;5031200;28;20072;-42
2021/09/19 12:06:41;;;;;;;5.95;5.40;;;;;;;24.37;47.26;101455.38;5029379;28;20060;-42
2021/09/19 12:09:13;;;;;;;6.10;5.60;;;;;;;24.66;47.44;101453.22;5031979;28;20041;-42
2021/09/19 12:11:43;;;;;;;6.07;5.18;;;;;;;25.33;44.84;101458.19;5021512;28;20030;-43
2021/09/19 12:14:18;;;;;;;6.45;5.85;;;;;;;24.22;47.50;101454.13;5029996;28;20058;-43
2021/09/19 12:17:06;;;;;;;6.18;5.60;;;;;;;24.71;47.61;101462.34;5012232;28;20480;-42
2021/09/19 12:19:33;;;;;;;6.30;5.70;;;;;;;24.74;46.76;101453.56;5012571;28;20101;-44
2021/09/19 12:22:21;;;;;;;7.13;5.38;;;;;;;24.49;47.78;101453.34;5011247;28;20018;-43
2021/09/19 12:24:51;;;;;;;6.57;5.40;;;;;;;24.61;47.14;101447.66;5022591;28;20032;-42
2021/09/19 12:27:18;;;;;;;6.00;5.45;;;;;;;24.41;47.57;101453.75;5020514;28;20034;-43
2021/09/19 12:30:06;;;;;;;5.03;4.53;;;;;;;25.32;45.83;101452.94;5012418;28;20034;-42
2021/09/19 12:32:40;;;;;;;7.68;5.80;;;;;;;24.70;46.09;101449.69;5012443;28;20022;-42
2021/09/19 12:35:14;;;;;;;7.28;6.55;;;;;;;23.95;47.44;101447.78;5012501;28;20096;-42
2021/09/19 12:37:45;;;;;;;7.78;6.68;;;;;;;23.68;48.55;101448.50;5012432;28;20037;-43
2021/09/19 12:40:19;;;;;;;7.78;5.78;;;;;;;24.51;47.22;101441.00;5012275;28;20076;-42
2021/09/19 12:42:46;;;;;;;6.65;6.10;;;;;;;23.92;48.46;101440.03;5012334;28;20033;-42
2021/09/19 12:45:14;;;;;;;7.28;6.68;;;;;;;23.67;49.14;101435.84;5012290;28;20117;-43
2021/09/19 12:47:41;;;;;;;6.43;5.82;;;;;;;24.15;48.56;101439.75;5012220;28;20089;-42
2021/09/19 12:50:12;;;;;;;7.32;6.63;;;;;;;24.24;47.77;101446.44;5011785;28;20192;-43
2021/09/19 12:52:39;;;;;;;8.55;7.75;;;;;;;23.59;48.93;101439.03;5011961;28;20038;-42
2021/09/19 12:55:05;;;;;;;5.80;5.30;;;;;;;24.05;48.94;101442.41;5010983;28;20474;-42
2021/09/19 12:57:31;;;;;;;6.63;6.03;;;;;;;23.94;49.26;101446.13;5013465;28;20387;-43
2021/09/19 12:59:57;;;;;;;7.20;6.45;;;;;;;23.93;49.02;101427.94;5014121;28;20129;-43
2021/09/19 13:02:23;;;;;;;7.50;6.80;;;;;;;24.04;48.59;101432.47;5016421;28;20018;-44
2021/09/19 13:04:49;;;;;;;7.63;6.82;;;;;;;23.21;51.09;101438.78;5032944;28;20071;-42
2021/09/19 13:07:14;;;;;;;6.72;6.07;;;;;;;23.85;49.98;101426.47;5029911;28;20389;-42
2021/09/19 13:09:41;;;;;;;7.85;6.32;;;;;;;24.02;48.89;101423.66;5032826;28;20073;-42
2021/09/19 13:12:07;;;;;;;7.97;7.18;;;;;;;24.00;48.41;101429.41;5035511;28;20026;-42
2021/09/19 13:14:33;;;;;;;8.38;7.57;;;;;;;23.49;49.70;101427.94;5054506;28;20033;-42
2021/09/19 13:16:59;;;;;;;8.18;7.38;;;;;;;23.40;49.09;101427.50;5030182;28;20088;-42
2021/09/19 13:19:24;;;;;;;8.18;7.38;;;;;;;23.37;49.88;101425.28;5028851;28;20037;-43
2021/09/19 13:21:50;;;;;;;9.15;7.57;;;;;;;23.23;50.72;101419.31;5017795;28;20104;-42
2021/09/19 13:24:16;;;;;;;8.68;7.82;;;;;;;23.18;50.04;101427.50;5014424;28;20032;-41
2021/09/19 13:26:41;;;;;;;8.95;8.05;;;;;;;22.59;51.43;101416.91;5015103;28;20033;-41
2021/09/19 13:29:08;;;;;;;8.00;7.20;;;;;;;22.61;52.32;101419.41;5015274;28;20034;-41
2021/09/19 13:31:34;;;;;;;8.53;6.47;;;;;;;22.95;51.56;101423.81;5015182;28;20499;-41
2021/09/19 13:33:59;;;;;;;6.28;5.68;;;;;;;23.35;50.88;101410.97;5014085;28;20269;-41
2021/09/19 13:36:27;;;;;;;10.10;7.53;;;;;;;22.97;50.93;101418.94;5015485;28;20060;-41
2021/09/19 13:38:55;;;;;;;7.78;7.07;;;;;;;22.59;52.33;101425.13;5037384;28;20041;-42
2021/09/19 13:41:21;;;;;;;6.97;6.22;;;;;;;23.41;50.20;101419.03;5032250;28;20025;-41
2021/09/19 13:43:47;;;;;;;7.22;6.60;;;;;;;23.38;49.96;101419.56;5021025;28;20456;-42
2021/09/19 13:46:13;;;;;;;6.97;5.97;;;;;;;23.78;48.66;101410.19;5034729;28;20100;-41
2021/09/19 13:48:38;;;;;;;6.95;5.97;;;;;;;23.85;48.93;101413.56;5025619;28;20076;-42
2021/09/19 13:51:05;;;;;;;6.22;5.63;;;;;;;24.70;47.15;101419.41;5031518;28;20143;-42
2021/09/19 13:53:31;;;;;;;6.70;5.75;;;;;;;24.46;47.04;101415.31;5034898;28;20400;-41
2021/09/19 13:55:56;;;;;;;8.10;7.18;;;;;;;24.30;47.58;101412.41;5024051;28;20104;-42
2021/09/19 13:58:23;;;;;;;7.90;7.10;;;;;;;24.10;47.78;101418.53;5014812;28;20041;-41
2021/09/19 14:00:48;;;;;;;9.17;6.80;;;;;;;23.74;48.93;101417.28;5030365;28;20026;-41
2021/09/19 14:03:13;;;;;;;8.95;7.93;;;;;;;23.91;47.70;101413.63;5026614;28;20495;-40
2021/09/19 14:05:41;;;;;;;10.82;7.80;;;;;;;23.46;48.33;101418.28;5023524;28;20029;-42
2021/09/19 14:08:08;;;;;;;8.05;7.25;;;;;;;23.13;49.29;101421.91;5033724;28;20112;-41
2021/09/19 14:10:34;;;;;;;8.35;6.57;;;;;;;23.01;50.33;101416.50;5033362;28;20036;-41
2021/09/19 14:12:59;;;;;;;9.18;6.85;;;;;;;23.07;49.79;101420.19;5033044;28;20371;-41
2021/09/19 14:15:24;;;;;;;8.90;5.75;;;;;;;23.28;49.98;101411.16;5043740;28;20117;-42
2021/09/19 14:17:50;;;;;;;7.57;5.40;;;;;;;23.53;48.58;101418.91;5030877;28;20061;-43
2021/09/19 14:20:16;;;;;;;6.97;4.93;;;;;;;23.91;48.10;101413.63;5029989;28;20080;-42
2021/09/19 14:22:42;;;;;;;7.05;5.72;;;;;;;23.72;47.40;101416.69;5030213;28;20423;-42
2021/09/19 14:25:08;;;;;;;6.13;5.53;;;;;;;23.90;47.51;101417.47;5029664;28;20095;-42
2021/09/19 14:27:35;;;;;;;8.75;7.60;;;;;;;23.84;47.53;101420.16;5030881;28;20021;-42
2021/09/19 14:30:02;;;;;;;14.77;11.02;;;;;;;22.64;48.61;101419.72;5028759;28;20025;-40
2021/09/19 14:32:27;;;;;;;11.30;10.07;;;;;;;22.76;49.11;101414.19;5030414;28;20030;-41
2021/09/19 14:34:52;;;;;;;9.80;8.55;;;;;;;22.84;50.34;101418.41;5030738;28;20090;-40
2021/09/19 14:37:18;;;;;;;10.10;8.63;;;;;;;22.87;49.25;101423.41;5030801;28;20036;-41
2021/09/19 14:39:43;;;;;;;8.45;7.65;;;;;;;22.94;49.18;101427.66;5030566;28;20030;-41
2021/09/19 14:42:08;;;;;;;10.10;7.93;;;;;;;22.82;48.49;101418.66;5029637;28;20113;-42
2021/09/19 14:44:34;;;;;;;7.88;6.28;;;;;;;23.04;48.74;101426.16;5028221;28;20025;-41
2021/09/19 14:46:59;;;;;;;7.95;6.07;;;;;;;23.12;48.88;101429.34;5029212;28;20411;-41
2021/09/19 14:49:24;;;;;;;6.03;5.43;;;;;;;23.48;48.20;101420.75;5046905;28;20033;-41
2021/09/19 14:51:50;;;;;;;9.00;5.40;;;;;;;23.50;49.03;101429.59;5033318;28;20230;-41
2021/09/19 14:54:15;;;;;;;9.55;6.68;;;;;;;23.69;47.25;101419.94;5030006;28;20033;-40
2021/09/19 14:56:41;;;;;;;5.45;4.03;;;;;;;23.55;47.36;101415.91;5030659;28;20116;-42
2021/09/19 14:59:07;;;;;;;4.03;3.38;;;;;;;23.34;48.50;101423.88;5042656;28;20025;-41
2021/09/19 15:01:32;;;;;;;4.20;3.17;;;;;;;23.09;48.79;101429.84;5028271;28;20434;-42
2021/09/19 15:03:58;;;;;;;4.40;3.60;;;;;;;22.71;49.37;101423.16;5027740;28;20049;-42
2021/09/19 15:06:23;;;;;;;3.25;2.95;;;;;;;22.40;50.09;101420.94;5030570;28;20094;-41
2021/09/19 15:08:49;;;;;;;4.35;3.95;;;;;;;22.23;50.15;101431.91;5030134;28;20026;-43
2021/09/19 15:11:14;;;;;;;5.32;4.35;;;;;;;21.96;50.72;101429.72;5029069;28;20060;-41
2021/09/19 15:13:40;;;;;;;4.32;3.92;;;;;;;21.94;51.49;101429.13;5030386;28;20034;-43
2021/09/19 15:16:08;;;;;;;4.57;4.10;;;;;;;21.91;51.08;101424.94;5033458;28;20460;-42
2021/09/19 15:18:34;;;;;;;4.43;3.80;;;;;;;21.81;52.22;101423.91;5032178;28;20099;-42
2021/09/19 15:20:59;;;;;;;4.70;4.30;;;;;;;21.73;52.20;101421.56;5026640;28;20033;-41
2021/09/19 15:23:25;;;;;;;5.10;4.43;;;;;;;21.75;52.68;101424.88;5028413;28;20033;-41
2021/09/19 15:25:50;;;;;;;5.70;4.78;;;;;;;21.82;52.98;101425.56;5027493;28;20029;-41
2021/09/19 15:28:15;;;;;;;6.38;5.78;;;;;;;21.93;52.53;101432.91;5010941;28;20041;-41
2021/09/19 15:30:41;;;;;;;7.57;4.57;;;;;;;22.04;52.06;101429.31;5012189;28;20033;-42
2021/09/19 15:33:06;;;;;;;4.95;3.90;;;;;;;21.94;51.70;101429.13;5031105;28;20083;-41
2021/09/19 15:35:31;;;;;;;3.50;3.10;;;;;;;21.83;51.97;101427.25;5041419;28;20055;-41
2021/09/19 15:37:58;;;;;;;4.07;3.78;;;;;;;21.96;50.67;101432.44;5033270;28;20033;-42
2021/09/19 15:40:23;;;;;;;3.90;3.60;;;;;;;21.85;51.70;101427.81;5029765;28;20033;-41
2021/09/19 15:42:51;;;;;;;6.20;3.83;;;;;;;21.84;51.01;101423.44;5028698;28;20048;-41
2021/09/19 15:45:16;;;;;;;;;;;;;;;21.90;51.12;101428.75;5030238;28;20033;-43
2021/09/19 15:47:42;;;;;;;7.05;3.70;;;;;;;21.81;51.78;101421.19;5030256;28;20442;-43
2021/09/19 15:50:08;;;;;;;5.10;3.47;;;;;;;21.57;52.28;101421.22;5029447;28;20021;-43
2021/09/19 15:52:33;;;;;;;6.05;3.50;;;;;;;21.34;53.68;101423.97;5029729;28;20033;-42
2021/09/19 15:54:58;;;;;;;4.13;3.25;;;;;;;21.36;54.14;101422.66;5028135;28;20407;-42
2021/09/19 15:57:24;;;;;;;3.75;2.70;;;;;;;21.40;54.62;101423.84;5029655;28;20057;-42
2021/09/19 15:59:49;;;;;;;5.97;3.53;;;;;;;21.55;53.34;101417.91;5029585;28;20069;-41
2021/09/19 16:02:14;;;;;;;6.40;3.47;;;;;;;21.59;53.09;101416.34;5031064;28;20436;-42
2021/09/19 16:04:40;;;;;;;3.67;3.38;;;;;;;21.43;53.66;101414.34;5031885;28;20041;-42
2021/09/19 16:07:05;;;;;;;8.18;3.50;;;;;;;21.30;53.78;101422.78;5031942;28;20487;-41
2021/09/19 16:09:30;;;;;;;3.70;3.40;;;;;;;21.13;54.43;101426.22;5029796;28;20024;-42
2021/09/19 16:11:56;;;;;;;5.32;3.72;;;;;;;20.97;54.76;101424.22;5032577;28;20022;-41
2021/09/19 16:14:21;;;;;;;4.78;3.33;;;;;;;21.06;54.77;101422.78;5032322;28;20061;-42
2021/09/19 16:16:46;;;;;;;3.75;3.45;;;;;;;20.94;55.19;101424.69;5032396;28;20450;-42
2021/09/19 16:19:12;;;;;;;4.40;3.95;;;;;;;20.81;55.58;101421.09;5032718;28;20052;-43
2021/09/19 16:21:37;;;;;;;4.53;3.55;;;;;;;20.79;55.81;101423.22;5032447;28;20029;-41
2021/09/19 16:24:03;;;;;;;6.18;3.70;;;;;;;20.78;56.14;101427.03;5032211;28;20477;-41
2021/09/19 16:26:30;;;;;;;4.35;3.95;;;;;;;20.65;56.08;101427.25;5031856;28;20029;-42
2021/09/19 16:28:56;;;;;;;;;;;;;;;20.61;56.66;101428.78;5032594;28;20032;-41
2021/09/19 16:31:21;;;;;;;6.68;4.40;;;;;;;20.51;56.82;101437.56;5032249;28;19913;-42
2021/09/19 16:33:46;;;;;;;4.05;3.65;;;;;;;20.45;56.94;101437.63;5016432;28;20057;-42
2021/09/19 16:36:12;;;;;;;5.75;4.10;;;;;;;20.36;56.96;101429.78;5022378;28;20061;-41
2021/09/19 16:38:38;;;;;;;3.95;3.60;;;;;;;20.44;57.00;101433.25;5023282;28;20053;-43
2021/09/19 16:41:05;;;;;;;10.65;4.18;;;;;;;20.38;56.91;101432.28;5019386;28;20034;-43
2021/09/19 16:43:31;;;;;;;4.30;3.33;;;;;;;20.35;57.03;101441.78;5021167;28;20464;-43
2021/09/19 16:45:56;;;;;;;5.13;4.00;;;;;;;20.25;57.31;101436.03;5011857;28;20044;-43
2021/09/19 16:48:21;;;;;;;3.95;3.55;;;;;;;20.30;57.81;101425.25;5020277;28;20119;-43
2021/09/19 16:50:47;;;;;;;4.20;3.80;;;;;;;20.18;57.74;101432.56;5013299;28;20034;-42
2021/09/19 16:53:14;;;;;;;3.92;3.42;;;;;;;20.16;58.09;101435.50;5026139;28;20121;-43
2021/09/19 16:55:39;;;;;;;4.28;3.88;;;;;;;20.05;58.49;101438.19;5031774;28;20033;-42
2021/09/19 16:58:06;;;;;;;5.40;4.18;;;;;;;19.99;58.66;101439.13;5040687;28;20029;-43
2021/09/19 17:00:32;;;;;;;4.75;3.50;;;;;;;19.90;58.69;101441.31;5050946;28;20025;-42
2021/09/19 17:02:58;;;;;;;3.58;3.28;;;;;;;19.80;59.00;101441.88;5052782;28;20392;-41
2021/09/19 17:05:24;;;;;;;8.10;3.92;;;;;;;19.75;59.59;101449.94;5051286;28;20021;-42
2021/09/19 17:07:52;;;;;;;5.55;3.65;;;;;;;19.74;59.68;101453.69;5052414;28;20098;-41
2021/09/19 17:10:17;;;;;;;3.67;3.35;;;;;;;19.71;59.91;101448.69;5041271;28;20480;-42
2021/09/19 17:12:43;;;;;;;4.25;3.30;;;;;;;19.73;59.55;101457.50;5032143;28;20040;-42
2021/09/19 17:15:10;;;;;;;4.97;3.65;;;;;;;19.64;59.65;101448.75;5032441;28;20037;-42
2021/09/19 17:17:35;;;;;;;3.58;3.28;;;;;;;19.57;60.16;101452.63;5031706;28;20053;-42
2021/09/19 17:20:01;;;;;;;3.63;3.33;;;;;;;19.49;59.73;101454.59;5031047;28;20412;-43
2021/09/19 17:22:26;;;;;;;3.50;3.20;;;;;;;19.43;59.95;101466.41;5031963;28;20029;-42
2021/09/19 17:24:51;;;;;;;3.58;3.00;;;;;;;19.36;60.56;101468.38;5030587;28;20056;-42
2021/09/19 17:27:17;;;;;;;3.47;2.97;;;;;;;19.36;60.53;101471.09;5031803;28;20089;-41
2021/09/19 17:29:43;;;;;;;3.30;3.00;;;;;;;19.35;60.76;101472.13;5030673;28;20033;-42
2021/09/19 17:32:08;;;;;;;6.90;3.30;;;;;;;19.39;60.28;101478.00;5032168;28;20209;-42
2021/09/19 17:34:37;;;;;;;2.67;2.45;;;;;;;19.41;60.81;101475.88;5033535;28;20549;-41
2021/09/19 17:37:03;;;;;;;2.90;2.67;;;;;;;19.38;60.89;101471.72;5026661;28;20087;-42
2021/09/19 17:39:29;;;;;;;3.00;2.80;;;;;;;19.37;60.54;101475.47;5023513;28;20022;-43
2021/09/19 17:41:55;;;;;;;3.25;2.95;;;;;;;19.38;60.67;101476.31;5031474;28;20032;-42
2021/09/19 17:44:20;;;;;;;6.22;3.10;;;;;;;19.33;60.78;101474.28;5051723;28;20468;-42
2021/09/19 17:46:45;;;;;;;5.05;2.85;;;;;;;19.21;60.99;101471.44;5035522;28;20059;-42
2021/09/19 17:49:11;;;;;;;4.53;2.40;;;;;;;19.10;61.40;101479.53;5025323;28;20068;-41
2021/09/19 17:51:36;;;;;;;2.63;2.42;;;;;;;19.10;61.74;101485.00;5025264;28;20075;-42
2021/09/19 17:54:02;;;;;;;4.20;2.85;;;;;;;18.95;62.08;101491.59;5043781;28;20416;-43
2021/09/19 17:56:28;;;;;;;2.80;2.60;;;;;;;19.00;62.06;101486.31;5051616;28;20155;-41
2021/09/19 17:58:53;;;;;;;4.32;2.80;;;;;;;18.89;62.38;101483.47;5032314;28;20587;-42
2021/09/19 18:01:18;;;;;;;4.20;2.65;;;;;;;18.90;62.57;101488.69;5031437;28;20463;-41
2021/09/19 18:03:44;;;;;;;3.42;2.88;;;;;;;18.89;62.63;101495.22;5031387;28;20132;-40
2021/09/19 18:06:09;;;;;;;3.40;2.75;;;;;;;18.91;62.67;101487.66;5014332;28;20033;-42
2021/09/19 18:08:34;;;;;;;11.40;2.70;;;;;;;18.82;62.93;101489.78;5011608;28;20108;-41
2021/09/19 18:11:02;;;;;;;6.35;2.63;;;;;;;18.69;63.39;101489.84;5030226;28;20117;-41
2021/09/19 18:13:27;;;;;;;4.05;2.80;;;;;;;18.64;63.39;101498.72;5046750;28;20031;-42
2021/09/19 18:15:52;;;;;;;3.53;3.22;;;;;;;18.59;63.88;101497.72;5044411;28;20075;-41
2021/09/19 18:18:18;;;;;;;3.97;3.20;;;;;;;18.54;63.50;101497.53;5015542;28;20484;-42
2021/09/19 18:20:44;;;;;;;3.55;2.92;;;;;;;18.53;63.61;101502.13;5011512;28;20478;-42
2021/09/19 18:23:11;;;;;;;7.13;3.67;;;;;;;18.51;64.09;101508.84;5015811;28;20029;-41
2021/09/19 18:25:37;;;;;;;7.82;3.42;;;;;;;18.54;63.55;101509.25;5021698;28;20029;-42
2021/09/19 18:28:11;;;;;;;3.42;3.13;;;;;;;18.50;63.77;101513.47;5030923;28;20037;-41
2021/09/19 18:30:37;;;;;;;3.58;3.28;;;;;;;18.58;63.43;101515.94;5031365;28;20026;-40
2021/09/19 18:33:04;;;;;;;4.32;3.00;;;;;;;18.53;63.86;101510.28;5030775;28;20036;-42
2021/09/19 18:35:29;;;;;;;3.97;3.65;;;;;;;18.52;63.59;101510.53;5012045;28;20026;-41
2021/09/19 18:37:55;;;;;;;6.70;3.60;;;;;;;18.44;63.81;101508.91;5012594;28;20534;-42
2021/09/19 18:40:20;;;;;;;10.38;3.70;;;;;;;18.40;64.09;101519.41;5040094;28;20036;-41
2021/09/19 18:42:45;;;;;;;3.97;3.55;;;;;;;18.28;64.65;101515.69;5028530;28;20057;-42
2021/09/19 18:45:15;;;;;;;5.35;3.67;;;;;;;18.18;64.52;101520.75;5033785;28;20149;-42
2021/09/19 18:47:41;;;;;;;5.30;3.58;;;;;;;18.15;64.98;101523.91;5030876;28;20034;-42
2021/09/19 18:50:06;;;;;;;3.90;3.60;;;;;;;18.16;64.97;101529.13;5026595;28;20037;-41
2021/09/19 18:52:32;;;;;;;4.38;3.80;;;;;;;18.10;64.92;101534.63;5030242;28;20037;-41
2021/09/19 18:54:57;;;;;;;4.43;3.20;;;;;;;18.06;65.03;101536.09;5012564;28;20033;-42
2021/09/19 18:57:23;;;;;;;3.58;3.28;;;;;;;18.05;65.10;101531.69;5027819;28;20029;-42
2021/09/19 18:59:49;;;;;;;4.10;3.67;;;;;;;17.96;64.99;101537.38;5030597;28;20029;-42
2021/09/19 19:02:14;;;;;;;3.97;3.67;;;;;;;18.03;64.75;101540.06;5029750;28;20052;-42
2021/09/19 19:04:40;;;;;;;4.65;4.22;;;;;;;17.96;65.15;101540.13;5030302;28;20021;-43
2021/09/19 19:07:05;;;;;;;4.70;4.18;;;;;;;17.90;65.05;101545.56;5028096;28;20118;-41
2021/09/19 19:09:31;;;;;;;4.40;4.00;;;;;;;17.85;65.21;101543.50;5030498;28;20041;-42
2021/09/19 19:11:56;;;;;;;4.75;4.35;;;;;;;17.86;65.14;101555.22;5027292;28;20042;-42
2021/09/19 19:14:21;;;;;;;4.53;3.70;;;;;;;17.82;65.56;101556.69;5030106;28;20029;-42
2021/09/19 19:16:46;;;;;;;4.90;4.03;;;;;;;17.74;65.47;101558.53;5023360;28;20025;-42
2021/09/19 19:19:12;;;;;;;4.43;3.50;;;;;;;17.78;65.64;101562.53;5030004;28;20057;-42
2021/09/19 19:21:38;;;;;;;5.85;3.70;;;;;;;17.72;65.77;101562.53;5030223;28;20037;-42
2021/09/19 19:24:04;;;;;;;4.60;4.20;;;;;;;17.67;65.58;101563.19;5025476;28;20048;-41
2021/09/19 19:26:29;;;;;;;4.25;3.90;;;;;;;17.70;65.42;101568.19;5019335;28;20444;-41
2021/09/19 19:28:55;;;;;;;4.30;3.90;;;;;;;17.68;65.62;101559.41;5044696;28;20028;-42
2021/09/19 19:31:21;;;;;;;4.30;3.90;;;;;;;17.51;65.98;101566.34;5044086;28;20366;-42
2021/09/19 19:33:46;;;;;;;4.53;4.13;;;;;;;17.45;66.25;101570.72;5035324;28;20026;-43
2021/09/19 19:36:12;;;;;;;4.75;4.35;;;;;;;17.31;66.62;101571.78;5009931;28;20103;-42
2021/09/19 19:38:38;;;;;;;4.30;3.90;;;;;;;17.34;66.84;101569.47;5009315;28;20033;-42
2021/09/19 19:41:04;;;;;;;3.85;3.55;;;;;;;17.29;66.78;101569.25;5032725;28;20371;-42
2021/09/19 19:43:29;;;;;;;4.00;3.40;;;;;;;17.25;67.05;101575.34;5025393;28;20029;-43
2021/09/19 19:45:54;;;;;;;4.57;3.70;;;;;;;17.25;66.73;101580.78;5032883;28;20048;-42